Time;durP1;ratioP1;P1;durP2;ratioP2;P2;SDS_P1;SDS_P2;PMS_P1;PMS_P2;Temp;Humidity;BMP_temperature;BMP_pressure;BME280_temperature;BME280_humidity;BME280_pressure;Samples;Min_cycle;Max_cycle;Signal;HPM_P1;HPM_P2
2022/12/18 00:01:27;;;;;;;114.97;40.72;;;-9.90;99.90;;;;;;5071921;28;20108;-69
2022/12/18 00:03:54;;;;;;;114.30;41.75;;;-10.00;99.90;;;;;;5070347;28;20106;-69
2022/12/18 00:06:20;;;;;;;119.90;43.50;;;-10.00;99.90;;;;;;5067487;28;20059;-69
2022/12/18 00:08:48;;;;;;;106.60;40.22;;;-10.00;99.90;;;;;;5069171;28;20051;-69
2022/12/18 00:11:19;;;;;;;100.20;39.35;;;-10.10;99.90;;;;;;5071958;28;20062;-69
2022/12/18 00:13:45;;;;;;;104.50;39.67;;;-10.10;99.90;;;;;;5069840;28;20786;-70
2022/12/18 00:16:13;;;;;;;122.00;43.25;;;-10.10;99.90;;;;;;5071821;28;20025;-69
2022/12/18 00:18:40;;;;;;;127.13;43.40;;;-10.10;99.90;;;;;;5040757;28;20095;-69
2022/12/18 00:21:08;;;;;;;106.50;40.10;;;-10.00;99.90;;;;;;5070833;28;20456;-69
2022/12/18 00:23:35;;;;;;;116.43;40.80;;;-10.00;99.90;;;;;;5071923;28;20074;-70
2022/12/18 00:26:03;;;;;;;105.68;41.45;;;-10.00;99.90;;;;;;5071741;28;20029;-69
2022/12/18 00:28:29;;;;;;;114.85;43.42;;;-10.00;99.90;;;;;;5069959;28;20051;-70
2022/12/18 00:31:05;;;;;;;103.47;39.70;;;-10.10;99.90;;;;;;5070933;28;20032;-69
2022/12/18 00:33:32;;;;;;;97.72;38.53;;;-10.10;99.90;;;;;;5070446;28;20362;-71
2022/12/18 00:36:05;;;;;;;114.85;41.97;;;-10.10;99.90;;;;;;5071939;28;20048;-71
2022/12/18 00:38:31;;;;;;;109.55;39.30;;;-10.10;99.90;;;;;;5077620;28;20090;-72
2022/12/18 00:40:57;;;;;;;118.13;43.10;;;-10.10;99.90;;;;;;5070998;28;20036;-70
2022/12/18 00:43:23;;;;;;;108.80;41.58;;;-10.10;99.90;;;;;;5071093;28;20178;-70
2022/12/18 00:45:48;;;;;;;117.40;42.13;;;-10.10;99.90;;;;;;5052721;28;20021;-71
2022/12/18 00:48:14;;;;;;;103.97;39.45;;;-10.10;99.90;;;;;;5071125;28;20025;-71
2022/12/18 00:50:39;;;;;;;109.20;38.35;;;-10.10;99.90;;;;;;5070365;28;20063;-70
2022/12/18 00:53:05;;;;;;;110.45;39.50;;;-10.10;99.90;;;;;;5071050;28;20326;-70
2022/12/18 00:55:31;;;;;;;115.70;41.72;;;-10.20;99.90;;;;;;5066295;28;20040;-70
2022/12/18 00:57:56;;;;;;;116.80;40.28;;;-10.20;99.90;;;;;;5076299;28;20494;-68
2022/12/18 01:00:22;;;;;;;115.28;41.78;;;-10.20;99.90;;;;;;5071997;28;20108;-69
2022/12/18 01:02:48;;;;;;;112.85;41.88;;;-10.10;99.90;;;;;;5070344;28;20082;-70
2022/12/18 01:05:14;;;;;;;117.95;41.42;;;-10.10;99.90;;;;;;5070615;28;20040;-69
2022/12/18 01:07:40;;;;;;;113.70;44.08;;;-10.10;99.90;;;;;;5069677;28;20028;-70
2022/12/18 01:10:07;;;;;;;122.38;41.88;;;-10.00;99.90;;;;;;5073470;28;20039;-70
2022/12/18 01:12:33;;;;;;;125.28;40.53;;;-10.00;99.90;;;;;;5069769;28;20355;-69
2022/12/18 01:14:58;;;;;;;104.60;37.85;;;-9.90;99.90;;;;;;5071203;28;20039;-69
2022/12/18 01:17:24;;;;;;;115.97;40.95;;;-9.80;99.90;;;;;;5068363;28;20020;-69
2022/12/18 01:19:50;;;;;;;122.10;41.13;;;-9.70;99.90;;;;;;5070840;28;20573;-70
2022/12/18 01:22:15;;;;;;;117.45;40.70;;;-9.60;99.90;;;;;;5071074;28;20063;-70
2022/12/18 01:24:41;;;;;;;102.55;35.95;;;-9.50;99.90;;;;;;5070197;28;20067;-70
2022/12/18 01:27:07;;;;;;;108.97;39.08;;;-9.40;99.90;;;;;;5062869;28;20438;-70
2022/12/18 01:29:32;;;;;;;102.32;38.28;;;-9.30;99.90;;;;;;5069600;28;20116;-70
2022/12/18 01:31:58;;;;;;;100.28;36.28;;;-9.30;99.90;;;;;;5070764;28;20063;-70
2022/12/18 01:34:23;;;;;;;104.93;37.80;;;-9.20;99.90;;;;;;5070930;28;20081;-70
2022/12/18 01:36:51;;;;;;;103.03;37.42;;;-9.20;99.90;;;;;;5069662;28;20063;-69
2022/12/18 01:39:18;;;;;;;95.55;35.38;;;-9.10;99.90;;;;;;5070896;28;20322;-70
2022/12/18 01:42:02;;;;;;;97.20;36.00;;;-9.10;99.90;;;;;;5068365;28;20036;-70
2022/12/18 01:44:49;;;;;;;93.82;36.25;;;-9.00;99.90;;;;;;5071101;28;20040;-70
2022/12/18 01:47:21;;;;;;;95.85;36.67;;;-8.90;99.90;;;;;;5066881;28;20086;-69
2022/12/18 01:49:47;;;;;;;91.10;35.10;;;-8.80;99.90;;;;;;5070314;28;20136;-70
2022/12/18 01:52:14;;;;;;;98.72;34.40;;;-8.70;99.90;;;;;;5070149;28;20453;-70
2022/12/18 01:54:39;;;;;;;83.28;33.17;;;-8.70;99.90;;;;;;5068917;28;20060;-71
2022/12/18 01:57:05;;;;;;;84.65;32.75;;;-8.70;99.90;;;;;;5076515;28;20056;-70
2022/12/18 01:59:32;;;;;;;83.38;33.28;;;-8.70;99.90;;;;;;5076724;28;20032;-70
2022/12/18 02:01:58;;;;;;;84.35;33.20;;;-8.80;99.90;;;;;;5081093;28;20090;-69
2022/12/18 02:04:26;;;;;;;96.63;34.92;;;-8.90;99.90;;;;;;5078193;28;20044;-69
2022/12/18 02:07:07;;;;;;;89.35;34.40;;;-8.90;99.90;;;;;;5073131;28;20037;-69
2022/12/18 02:09:59;;;;;;;94.28;36.85;;;-9.00;99.90;;;;;;5072631;28;20052;-70
2022/12/18 02:12:34;;;;;;;83.30;34.20;;;-9.00;99.90;;;;;;5070087;28;20027;-70
2022/12/18 02:15:13;;;;;;;96.28;35.78;;;-8.90;99.90;;;;;;5074665;28;20028;-69
2022/12/18 02:18:06;;;;;;;89.65;34.65;;;-8.80;99.90;;;;;;5076904;28;20040;-68
2022/12/18 02:20:36;;;;;;;85.00;35.15;;;-8.70;99.90;;;;;;5073185;28;20674;-70
2022/12/18 02:23:14;;;;;;;90.57;35.25;;;-8.70;99.90;;;;;;5074281;28;20021;-69
2022/12/18 02:26:19;;;;;;;85.45;32.25;;;-8.60;99.90;;;;;;5073643;28;20036;-70
2022/12/18 02:28:52;;;;;;;93.88;34.13;;;-8.60;99.90;;;;;;5069528;28;20048;-69
2022/12/18 02:31:23;;;;;;;92.93;34.47;;;-8.70;99.90;;;;;;5073278;28;20489;-70
2022/12/18 02:33:52;;;;;;;103.22;38.22;;;-8.70;99.90;;;;;;5074660;28;20057;-69
2022/12/18 02:36:20;;;;;;;88.70;33.28;;;-8.70;99.90;;;;;;5080906;28;20458;-69
2022/12/18 02:38:47;;;;;;;101.32;37.40;;;-8.70;99.90;;;;;;5063061;28;20577;-69
2022/12/18 02:41:15;;;;;;;87.18;34.28;;;-8.70;99.90;;;;;;5072715;28;20036;-68
2022/12/18 02:43:49;;;;;;;84.20;32.40;;;-8.70;99.90;;;;;;5059781;28;20040;-69
2022/12/18 02:46:34;;;;;;;85.95;30.88;;;-8.80;99.90;;;;;;5073685;28;20028;-70
2022/12/18 02:49:14;;;;;;;86.63;33.63;;;-9.00;99.90;;;;;;5073814;28;20031;-70
2022/12/18 02:52:01;;;;;;;86.47;33.42;;;-9.00;99.90;;;;;;5077037;28;20032;-70
2022/12/18 02:55:05;;;;;;;81.88;30.67;;;-9.10;99.90;;;;;;5072542;28;20088;-70
2022/12/18 02:57:54;;;;;;;83.55;33.33;;;-9.20;99.90;;;;;;5073354;28;20028;-71
2022/12/18 03:00:45;;;;;;;87.40;32.83;;;-9.20;99.90;;;;;;5073675;28;20082;-69
2022/12/18 03:03:29;;;;;;;91.72;33.03;;;-9.30;99.90;;;;;;5064612;28;20028;-70
2022/12/18 03:06:06;;;;;;;92.20;34.33;;;-9.20;99.90;;;;;;5072778;28;20450;-69
2022/12/18 03:08:39;;;;;;;87.70;32.83;;;-9.10;99.90;;;;;;5071115;28;20416;-70
2022/12/18 03:11:13;;;;;;;97.95;35.22;;;-9.10;99.90;;;;;;5073153;28;20116;-70
2022/12/18 03:14:08;;;;;;;87.32;32.92;;;-8.90;99.90;;;;;;5072183;28;20107;-70
2022/12/18 03:16:36;;;;;;;102.43;35.42;;;-8.90;99.90;;;;;;5053379;28;20053;-69
2022/12/18 03:19:08;;;;;;;91.00;35.20;;;-9.00;99.90;;;;;;5071704;28;20115;-70
2022/12/18 03:21:55;;;;;;;83.50;32.30;;;-9.10;99.90;;;;;;5072108;28;20028;-69
2022/12/18 03:24:22;;;;;;;90.30;31.73;;;-9.20;99.90;;;;;;5061332;28;20037;-69
2022/12/18 03:26:53;;;;;;;93.38;34.45;;;-9.30;99.90;;;;;;5076973;28;20735;-69
2022/12/18 03:29:26;;;;;;;88.82;32.05;;;-9.30;99.90;;;;;;5071700;28;20024;-69
2022/12/18 03:31:58;;;;;;;92.22;31.98;;;-9.40;99.90;;;;;;5071905;28;20461;-69
2022/12/18 03:34:30;;;;;;;94.18;32.55;;;-9.50;99.90;;;;;;5073069;28;20424;-69
2022/12/18 03:36:56;;;;;;;80.50;31.83;;;-9.50;99.90;;;;;;5072561;28;20385;-69
2022/12/18 03:39:22;;;;;;;91.55;31.75;;;-9.50;99.90;;;;;;5055022;28;20032;-69
2022/12/18 03:42:10;;;;;;;75.25;29.38;;;-9.50;99.90;;;;;;5077376;28;20093;-69
2022/12/18 03:44:54;;;;;;;78.07;29.73;;;-9.40;99.90;;;;;;5072271;28;20052;-69
2022/12/18 03:47:35;;;;;;;77.78;28.85;;;-9.30;99.90;;;;;;5072105;28;20025;-70
2022/12/18 03:50:30;;;;;;;78.50;29.02;;;-9.20;99.90;;;;;;5072824;28;20486;-69
2022/12/18 03:53:17;;;;;;;72.72;28.15;;;-9.10;99.90;;;;;;5072440;28;20082;-69
2022/12/18 03:55:43;;;;;;;75.55;29.88;;;-9.10;99.90;;;;;;5064197;28;20124;-70
2022/12/18 03:58:13;;;;;;;71.10;27.45;;;-9.10;99.90;;;;;;5066959;28;20024;-70
2022/12/18 04:00:39;;;;;;;68.10;27.40;;;-9.10;99.90;;;;;;5059984;28;20390;-70
2022/12/18 04:03:07;;;;;;;70.80;27.30;;;-9.10;99.90;;;;;;5071176;28;20508;-68
2022/12/18 04:05:34;;;;;;;72.13;26.65;;;-9.10;99.90;;;;;;5071701;28;20454;-68
2022/12/18 04:08:01;;;;;;;66.93;27.85;;;-9.10;99.90;;;;;;5071445;28;20040;-69
2022/12/18 04:10:26;;;;;;;65.82;27.27;;;-9.10;99.90;;;;;;5071959;28;20064;-70
2022/12/18 04:12:55;;;;;;;75.70;26.13;;;-9.10;99.90;;;;;;5069244;28;20074;-70
2022/12/18 04:15:21;;;;;;;68.22;28.50;;;-9.10;99.90;;;;;;5072223;28;20493;-69
2022/12/18 04:17:48;;;;;;;61.40;27.75;;;-9.10;99.90;;;;;;5071941;28;20032;-69
2022/12/18 04:20:14;;;;;;;67.05;28.08;;;-9.10;99.90;;;;;;5080570;28;20029;-69
2022/12/18 04:22:39;;;;;;;70.80;26.48;;;-9.10;99.90;;;;;;5070832;28;20470;-68
2022/12/18 04:25:05;;;;;;;72.15;26.98;;;-9.10;99.90;;;;;;5067156;28;20078;-69
2022/12/18 04:27:31;;;;;;;69.90;27.50;;;-9.10;99.90;;;;;;5069658;28;20041;-69
2022/12/18 04:29:56;;;;;;;64.90;26.63;;;-9.00;99.90;;;;;;5067557;28;20036;-69
2022/12/18 04:32:22;;;;;;;62.55;26.63;;;-9.00;99.90;;;;;;5071097;28;20466;-69
2022/12/18 04:34:48;;;;;;;62.15;25.85;;;-9.10;99.90;;;;;;5072984;28;20032;-69
2022/12/18 04:37:13;;;;;;;62.22;25.35;;;-9.10;99.90;;;;;;5070629;28;20081;-69
2022/12/18 04:39:39;;;;;;;74.32;27.83;;;-9.20;99.90;;;;;;5070764;28;20040;-69
2022/12/18 04:42:05;;;;;;;66.82;26.85;;;-9.30;99.90;;;;;;5070733;28;20029;-70
2022/12/18 04:44:30;;;;;;;69.72;26.70;;;-9.40;99.90;;;;;;5070697;28;20036;-69
2022/12/18 04:46:56;;;;;;;74.40;28.35;;;-9.40;99.90;;;;;;5070877;28;20028;-69
2022/12/18 04:49:22;;;;;;;69.20;26.55;;;-9.40;99.90;;;;;;5070899;28;20028;-69
2022/12/18 04:51:47;;;;;;;65.70;26.75;;;-9.40;99.90;;;;;;5069398;28;20540;-69
2022/12/18 04:54:13;;;;;;;67.03;27.38;;;-9.50;99.90;;;;;;5070704;28;20478;-70
2022/12/18 04:56:39;;;;;;;67.50;26.58;;;-9.50;99.90;;;;;;5062967;28;20021;-70
2022/12/18 04:59:05;;;;;;;62.28;25.02;;;-9.60;99.90;;;;;;5077765;28;20028;-69
2022/12/18 05:01:30;;;;;;;64.72;26.13;;;-9.70;99.90;;;;;;5069910;28;20025;-69
2022/12/18 05:03:56;;;;;;;67.95;25.33;;;-9.70;99.90;;;;;;5070989;28;20035;-68
2022/12/18 05:06:22;;;;;;;64.82;26.48;;;-9.70;99.90;;;;;;5073828;28;20030;-68
2022/12/18 05:08:47;;;;;;;65.50;24.88;;;-9.60;99.90;;;;;;5076309;28;20082;-69
2022/12/18 05:11:17;;;;;;;67.35;25.95;;;-9.70;99.90;;;;;;5080603;28;20032;-70
2022/12/18 05:13:44;;;;;;;66.10;25.52;;;-9.70;99.90;;;;;;5068575;28;20024;-70
2022/12/18 05:16:10;;;;;;;67.13;26.83;;;-9.70;99.90;;;;;;5070982;28;20056;-70
2022/12/18 05:18:36;;;;;;;67.63;27.13;;;-9.80;99.90;;;;;;5070010;28;20024;-69
2022/12/18 05:21:03;;;;;;;69.55;25.88;;;-9.90;99.90;;;;;;5071243;28;20032;-70
2022/12/18 05:23:28;;;;;;;62.55;27.17;;;-9.90;99.90;;;;;;5070811;28;20389;-71
2022/12/18 05:25:56;;;;;;;62.88;25.90;;;-10.00;99.90;;;;;;5070404;28;20028;-70
2022/12/18 05:28:23;;;;;;;62.13;26.17;;;-10.10;99.90;;;;;;5056479;28;20068;-69
2022/12/18 05:30:50;;;;;;;66.90;25.23;;;-10.10;99.90;;;;;;5050156;28;20261;-69
2022/12/18 05:33:16;;;;;;;67.00;25.30;;;-10.10;99.90;;;;;;5050627;28;20017;-69
2022/12/18 05:35:42;;;;;;;68.32;25.33;;;-10.20;99.90;;;;;;5049973;28;20112;-70
2022/12/18 05:38:08;;;;;;;71.45;26.92;;;;;;;;;;5066024;28;20031;-69
2022/12/18 05:40:34;;;;;;;62.30;26.08;;;;;;;;;;5074716;28;20032;-70
2022/12/18 05:43:00;;;;;;;60.67;25.33;;;;;;;;;;5075618;28;20047;-70
2022/12/18 05:45:26;;;;;;;72.47;26.60;;;;;;;;;;5070758;28;20082;-69
2022/12/18 05:47:52;;;;;;;74.47;27.77;;;;;;;;;;5069340;28;20025;-69
2022/12/18 05:50:18;;;;;;;65.40;26.55;;;;;;;;;;5052391;28;20124;-67
2022/12/18 05:52:44;;;;;;;67.28;26.42;;;;;;;;;;5060282;28;20036;-68
2022/12/18 05:55:10;;;;;;;63.92;26.23;;;;;;;;;;5068390;28;20044;-69
2022/12/18 05:57:36;;;;;;;76.32;26.58;;;;;;;;;;5072982;28;20051;-68
2022/12/18 06:00:03;;;;;;;72.18;26.83;;;;;;;;;;5083300;28;20033;-68
2022/12/18 06:02:29;;;;;;;70.18;27.75;;;;;;;;;;5069038;28;20024;-70
2022/12/18 06:04:55;;;;;;;65.90;24.55;;;;;;;;;;5070514;28;20354;-68
2022/12/18 06:07:21;;;;;;;65.50;24.45;;;;;;;;;;5071083;28;20068;-69
2022/12/18 06:09:47;;;;;;;64.63;26.52;;;;;;;;;;5070331;28;20194;-69
2022/12/18 06:12:13;;;;;;;65.65;25.85;;;;;;;;;;5069163;28;20027;-69
2022/12/18 06:14:39;;;;;;;64.55;24.50;;;;;;;;;;5071037;28;20112;-69
2022/12/18 06:17:05;;;;;;;62.08;23.92;;;;;;;;;;5069876;28;20048;-69
2022/12/18 06:19:31;;;;;;;69.25;26.30;;;;;;;;;;5069717;28;20079;-69
2022/12/18 06:21:58;;;;;;;69.80;27.70;;;;;;;;;;5069824;28;20032;-69
2022/12/18 06:24:24;;;;;;;63.15;25.33;;;;;;;;;;5066696;28;20036;-69
2022/12/18 06:26:50;;;;;;;64.63;26.55;;;;;;;;;;5068854;28;20032;-68
2022/12/18 06:29:16;;;;;;;60.00;24.85;;;;;;;;;;5068523;28;20385;-69
2022/12/18 06:31:42;;;;;;;64.60;24.90;;;;;;;;;;5057204;28;20067;-69
2022/12/18 06:34:08;;;;;;;64.47;26.90;;;;;;;;;;5066397;28;20036;-69
2022/12/18 06:36:34;;;;;;;69.78;25.08;;;;;;;;;;5066629;28;20035;-69
2022/12/18 06:39:00;;;;;;;63.80;24.05;;;;;;;;;;5068707;28;20031;-70
2022/12/18 06:41:26;;;;;;;69.15;23.42;;;;;;;;;;5065398;28;20046;-72
2022/12/18 06:43:52;;;;;;;64.20;24.65;;;;;;;;;;5070506;28;20052;-69
2022/12/18 06:46:18;;;;;;;61.50;24.08;;;;;;;;;;5066442;28;20927;-69
2022/12/18 06:48:47;;;;;;;56.70;23.77;;;;;;;;;;5070270;28;20028;-73
2022/12/18 06:51:15;;;;;;;71.57;25.90;;;;;;;;;;5070193;28;20535;-70
2022/12/18 06:53:41;;;;;;;56.23;23.23;;;;;;;;;;5079982;28;20035;-70
2022/12/18 06:56:07;;;;;;;50.50;22.05;;;;;;;;;;5069793;28;20436;-70
2022/12/18 06:58:33;;;;;;;60.08;22.95;;;;;;;;;;5078098;28;20036;-71
2022/12/18 07:01:00;;;;;;;68.40;25.02;;;;;;;;;;5056303;28;20021;-71
2022/12/18 07:03:26;;;;;;;64.68;24.20;;;;;;;;;;5087317;28;20024;-71
2022/12/18 07:05:52;;;;;;;58.58;22.05;;;;;;;;;;5070781;28;20025;-71
2022/12/18 07:08:18;;;;;;;57.28;23.40;;;;;;;;;;5080890;28;20089;-67
2022/12/18 07:10:44;;;;;;;63.97;24.10;;;;;;;;;;5074966;28;20040;-69
2022/12/18 07:13:10;;;;;;;57.95;23.92;;;;;;;;;;5082265;28;20020;-69
2022/12/18 07:15:37;;;;;;;59.58;24.17;;;;;;;;;;5079177;28;20540;-70
2022/12/18 07:18:03;;;;;;;56.10;22.85;;;;;;;;;;5071049;28;20025;-69
2022/12/18 07:20:29;;;;;;;62.58;23.48;;;;;;;;;;5069654;28;20490;-70
2022/12/18 07:22:55;;;;;;;62.40;25.10;;;;;;;;;;5071512;28;20033;-69
2022/12/18 07:25:21;;;;;;;57.83;22.90;;;;;;;;;;5068307;28;20033;-68
2022/12/18 07:27:47;;;;;;;56.78;23.50;;;;;;;;;;5073752;28;20045;-69
2022/12/18 07:30:13;;;;;;;63.90;26.58;;;;;;;;;;5072396;28;20140;-71
2022/12/18 07:32:39;;;;;;;64.25;25.85;;;;;;;;;;5073902;28;20043;-70
2022/12/18 07:35:05;;;;;;;60.97;23.50;;;;;;;;;;5076101;28;20454;-70
2022/12/18 07:37:31;;;;;;;58.08;23.65;;;;;;;;;;5075081;28;20027;-68
2022/12/18 07:39:57;;;;;;;55.10;21.98;;;;;;;;;;5075745;28;20192;-69
2022/12/18 07:42:32;;;;;;;59.45;23.83;;;;;;;;;;5072401;28;20443;-66
2022/12/18 07:44:59;;;;;;;57.50;23.38;;;;;;;;;;5063207;28;20020;-66
2022/12/18 07:47:25;;;;;;;69.85;28.98;;;;;;;;;;5083956;28;20384;-68
2022/12/18 07:49:51;;;;;;;63.13;25.77;;;;;;;;;;5083526;28;20048;-69
2022/12/18 07:52:17;;;;;;;66.00;25.23;;;;;;;;;;5080367;28;20358;-71
2022/12/18 07:54:43;;;;;;;61.55;26.77;;;;;;;;;;5082699;28;20079;-70
2022/12/18 07:57:09;;;;;;;66.10;27.25;;;;;;;;;;5072935;28;20031;-69
2022/12/18 07:59:35;;;;;;;64.47;26.65;;;;;;;;;;5080243;28;20032;-69
2022/12/18 08:02:01;;;;;;;73.78;28.17;;;;;;;;;;5050511;28;20397;-68
2022/12/18 08:04:27;;;;;;;62.63;25.00;;;;;;;;;;5081095;28;20028;-70
2022/12/18 08:06:53;;;;;;;69.35;27.23;;;;;;;;;;5066207;28;20032;-70
2022/12/18 08:09:19;;;;;;;63.42;26.15;;;;;;;;;;5079680;28;20028;-69
2022/12/18 08:11:45;;;;;;;62.70;24.20;;;;;;;;;;5062660;28;20023;-69
2022/12/18 08:14:11;;;;;;;57.55;23.88;;;;;;;;;;5071587;28;20105;-71
2022/12/18 08:16:37;;;;;;;59.03;24.38;;;;;;;;;;5068585;28;20067;-72
2022/12/18 08:19:03;;;;;;;63.90;25.05;;;;;;;;;;5077711;28;20036;-68
2022/12/18 08:21:31;;;;;;;76.40;29.88;;;;;;;;;;5067845;28;20187;-67
2022/12/18 08:23:58;;;;;;;62.10;25.75;;;;;;;;;;5076683;28;20048;-68
2022/12/18 08:26:26;;;;;;;72.32;26.27;;;;;;;;;;5068092;28;20024;-67
2022/12/18 08:28:56;;;;;;;70.53;26.85;;;;;;;;;;5069921;28;20052;-75
2022/12/18 08:31:22;;;;;;;70.22;28.67;;;;;;;;;;5067731;28;20071;-67
2022/12/18 08:33:52;;;;;;;68.82;28.15;;;;;;;;;;5072568;28;20612;-69
2022/12/18 08:36:18;;;;;;;61.80;25.05;;;;;;;;;;5072600;28;20474;-76
2022/12/18 08:38:44;;;;;;;58.03;25.02;;;;;;;;;;5070304;28;20418;-68
2022/12/18 08:41:11;;;;;;;62.33;26.02;;;;;;;;;;5066610;28;20025;-71
2022/12/18 08:46:24;;;;;;;62.97;25.33;;;;;;;;;;5069095;28;20035;-71
2022/12/18 08:48:53;;;;;;;58.13;23.33;;;;;;;;;;5068048;28;20032;-71
2022/12/18 08:51:19;;;;;;;64.50;24.33;;;;;;;;;;5067915;28;20374;-72
2022/12/18 08:53:45;;;;;;;59.85;26.33;;;-8.30;99.90;;;;;;5068716;28;20028;-71
2022/12/18 08:56:12;;;;;;;66.13;26.33;;;-8.30;99.90;;;;;;5067625;28;20059;-72
2022/12/18 08:58:38;;;;;;;66.80;26.17;;;-8.20;99.90;;;;;;5068003;28;20028;-71
2022/12/18 09:01:11;;;;;;;58.63;24.75;;;-8.10;99.90;;;;;;5067226;28;20036;-71
2022/12/18 09:03:37;;;;;;;65.65;27.63;;;-8.00;99.90;;;;;;5063669;28;20469;-71
2022/12/18 09:06:03;;;;;;;59.08;24.02;;;-7.90;99.90;;;;;;5069608;28;20111;-74
2022/12/18 09:08:29;;;;;;;68.95;25.63;;;-7.90;99.90;;;;;;5071000;28;20103;-76
2022/12/18 09:10:56;;;;;;;62.47;25.73;;;-7.80;99.90;;;;;;5070392;28;20495;-70
2022/12/18 09:13:22;;;;;;;62.17;26.50;;;-7.70;99.90;;;;;;5070160;28;20090;-69
2022/12/18 09:15:50;;;;;;;71.32;27.52;;;-7.50;99.90;;;;;;5069953;28;20616;-70
2022/12/18 09:18:18;;;;;;;65.03;27.00;;;-7.40;99.90;;;;;;5069160;28;20457;-70
2022/12/18 09:20:44;;;;;;;65.20;26.42;;;-7.20;99.90;;;;;;5069845;28;20044;-70
2022/12/18 09:23:11;;;;;;;63.00;27.40;;;-7.10;99.90;;;;;;5076250;28;20032;-70
2022/12/18 09:25:37;;;;;;;60.20;25.65;;;-7.00;99.90;;;;;;5069527;28;20063;-70
2022/12/18 09:28:10;;;;;;;63.47;26.35;;;-6.90;99.90;;;;;;5070090;28;20067;-70
2022/12/18 09:30:41;;;;;;;57.80;25.48;;;-6.80;99.90;;;;;;5069730;28;20430;-70
2022/12/18 09:33:07;;;;;;;68.35;27.92;;;-6.80;99.90;;;;;;5070496;28;20052;-69
2022/12/18 09:35:32;;;;;;;60.65;26.25;;;-6.70;99.90;;;;;;5070140;28;20068;-70
2022/12/18 09:37:58;;;;;;;64.13;27.35;;;-6.70;99.90;;;;;;5074656;28;20063;-70
2022/12/18 09:40:28;;;;;;;59.45;26.38;;;-6.60;99.90;;;;;;5070907;28;20355;-70
2022/12/18 09:43:02;;;;;;;64.95;27.98;;;-6.50;99.90;;;;;;5069153;28;20032;-70
2022/12/18 09:45:30;;;;;;;70.85;28.13;;;-6.40;99.90;;;;;;5070590;28;20093;-72
2022/12/18 09:47:56;;;;;;;59.42;26.52;;;-6.40;99.90;;;;;;5070396;28;20079;-70
2022/12/18 09:50:39;;;;;;;70.40;28.45;;;-6.40;99.90;;;;;;5069321;28;20393;-69
2022/12/18 09:53:11;;;;;;;65.88;28.13;;;-6.40;99.90;;;;;;5067967;28;20090;-70
2022/12/18 09:55:39;;;;;;;63.15;28.17;;;-6.40;99.90;;;;;;5072014;28;20079;-70
2022/12/18 09:58:13;;;;;;;74.22;27.40;;;-6.40;99.90;;;;;;5076198;28;20036;-69
2022/12/18 10:00:39;;;;;;;71.18;29.70;;;-6.40;99.90;;;;;;5069264;28;20028;-69
2022/12/18 10:03:14;;;;;;;68.38;30.17;;;-6.40;99.90;;;;;;5069957;28;20066;-69
2022/12/18 10:06:04;;;;;;;75.18;30.25;;;-6.30;99.90;;;;;;5051524;28;20028;-70
2022/12/18 10:08:48;;;;;;;66.90;29.48;;;-6.30;99.90;;;;;;5068971;28;20027;-71
2022/12/18 10:11:21;;;;;;;70.93;29.80;;;-6.20;99.90;;;;;;5070882;28;20032;-69
2022/12/18 10:14:01;;;;;;;76.65;30.95;;;-6.20;99.90;;;;;;5063191;28;20024;-69
2022/12/18 10:16:26;;;;;;;;;;;-6.20;99.90;;;;;;5078188;28;20064;-69
2022/12/18 10:19:00;;;;;;;71.45;28.92;;;-6.10;99.90;;;;;;5072233;28;20545;-69
2022/12/18 10:21:58;;;;;;;61.35;27.75;;;-6.00;99.90;;;;;;5073710;28;20448;-69
2022/12/18 10:24:36;;;;;;;66.57;29.52;;;-5.80;99.90;;;;;;5054854;28;20119;-70
2022/12/18 10:27:22;;;;;;;66.43;27.33;;;-5.70;99.90;;;;;;5073415;28;20458;-70
2022/12/18 10:29:47;;;;;;;73.05;29.55;;;-5.60;99.90;;;;;;5070666;28;20481;-70
2022/12/18 10:32:24;;;;;;;72.03;30.02;;;-5.40;99.90;;;;;;5066802;28;20065;-70
2022/12/18 10:34:54;;;;;;;72.45;32.25;;;-5.50;99.90;;;;;;5076937;28;20525;-70
2022/12/18 10:37:27;;;;;;;75.43;32.50;;;-5.30;99.90;;;;;;5073499;28;20016;-70
2022/12/18 10:40:15;;;;;;;72.38;30.98;;;-5.10;99.90;;;;;;5073256;28;20744;-70
2022/12/18 10:42:43;;;;;;;63.40;29.13;;;;;;;;;;5072624;28;20028;-70
2022/12/18 10:45:17;;;;;;;67.70;28.23;;;;;;;;;;5073260;28;20040;-68
2022/12/18 10:47:52;;;;;;;64.80;28.25;;;-4.50;99.90;;;;;;5072369;28;20107;-69
2022/12/18 10:50:29;;;;;;;93.30;38.83;;;-4.50;99.90;;;;;;5080187;28;20123;-70
2022/12/18 10:53:05;;;;;;;75.45;32.88;;;-4.30;99.90;;;;;;5073290;28;20063;-69
2022/12/18 10:55:34;;;;;;;68.15;30.35;;;-4.40;99.90;;;;;;5073060;28;20028;-68
2022/12/18 10:58:22;;;;;;;69.25;29.13;;;-4.20;99.90;;;;;;5072229;28;20056;-69
2022/12/18 11:01:06;;;;;;;68.90;29.83;;;-4.10;99.90;;;;;;5066569;28;20191;-68
2022/12/18 11:03:41;;;;;;;67.43;28.85;;;-4.00;99.90;;;;;;5072238;28;20435;-69
2022/12/18 11:06:13;;;;;;;62.53;28.95;;;-4.00;99.90;;;;;;5079929;28;20108;-69
2022/12/18 11:08:41;;;;;;;67.88;30.60;;;-3.80;99.90;;;;;;5053652;28;20447;-68
2022/12/18 11:11:20;;;;;;;61.95;28.40;;;-3.70;99.90;;;;;;5071642;28;20052;-68
2022/12/18 11:14:03;;;;;;;62.47;28.40;;;-3.60;99.90;;;;;;5066165;28;20661;-68
2022/12/18 11:16:33;;;;;;;64.53;27.08;;;-3.50;99.90;;;;;;5074595;28;20052;-67
2022/12/18 11:19:31;;;;;;;;;;;-3.40;99.90;;;;;;5073980;28;20089;-67
2022/12/18 11:21:57;;;;;;;51.03;22.17;;;-3.20;99.90;;;;;;5046288;28;19969;-72
2022/12/18 11:24:31;;;;;;;58.25;22.95;;;;;;;;;;5073482;28;20032;-66
2022/12/18 11:27:01;;;;;;;58.97;24.95;;;-2.90;99.90;;;;;;5072790;28;20017;-67
2022/12/18 11:29:29;;;;;;;;;;;-2.90;99.90;;;;;;5072649;28;20051;-73
2022/12/18 11:32:34;;;;;;;53.03;22.27;;;-2.80;99.90;;;;;;5072796;28;19909;-69
2022/12/18 11:35:23;;;;;;;48.90;21.70;;;-2.80;99.90;;;;;;5068176;28;20107;-70
2022/12/18 11:38:02;;;;;;;52.35;21.65;;;-2.70;99.90;;;;;;5078400;28;20089;-69
2022/12/18 11:40:37;;;;;;;49.72;21.98;;;-2.60;99.90;;;;;;5072981;28;20036;-68
2022/12/18 11:43:25;;;;;;;47.30;21.23;;;-2.50;99.90;;;;;;5072542;28;20052;-68
2022/12/18 11:46:23;;;;;;;47.05;21.40;;;-2.50;99.90;;;;;;5071146;28;20040;-68
2022/12/18 11:48:56;;;;;;;50.75;22.23;;;-2.40;99.90;;;;;;5071010;28;20040;-66
2022/12/18 11:51:37;;;;;;;47.50;21.38;;;-2.40;99.90;;;;;;5072435;28;20182;-67
2022/12/18 11:54:14;;;;;;;50.80;21.17;;;-2.30;99.90;;;;;;5075726;28;20036;-72
2022/12/18 11:56:46;;;;;;;49.45;21.58;;;;;;;;;;5071797;28;20049;-69
2022/12/18 11:59:56;;;;;;;49.28;21.23;;;-2.10;99.90;;;;;;5072189;28;20158;-70
2022/12/18 12:02:33;;;;;;;42.60;20.33;;;;;;;;;;5040380;28;20068;-69
2022/12/18 12:05:05;;;;;;;48.33;21.35;;;;;;;;;;5072875;28;20036;-68
2022/12/18 12:07:51;;;;;;;47.30;22.33;;;;;;;;;;5071065;28;20029;-67
2022/12/18 12:10:32;;;;;;;53.28;23.17;;;;;;;;;;5061981;28;20033;-68
2022/12/18 12:13:11;;;;;;;50.40;21.65;;;;;;;;;;5066367;28;20073;-69
2022/12/18 12:15:53;;;;;;;59.78;24.77;;;;;;;;;;5066806;28;20032;-69
2022/12/18 12:18:18;;;;;;;46.78;20.88;;;;;;;;;;5064052;28;20432;-70
2022/12/18 12:21:00;;;;;;;47.90;22.70;;;;;;;;;;5077859;28;20024;-70
2022/12/18 12:23:42;;;;;;;47.80;22.17;;;;;;;;;;5066344;28;20112;-69
2022/12/18 12:26:14;;;;;;;48.88;21.88;;;;;;;;;;5070082;28;20151;-69
2022/12/18 12:28:52;;;;;;;49.47;22.95;;;;;;;;;;5070644;28;20123;-69
2022/12/18 12:31:28;;;;;;;52.33;23.52;;;;;;;;;;5069930;28;20048;-69
2022/12/18 12:34:01;;;;;;;43.65;21.40;;;;;;;;;;5072269;28;20129;-69
2022/12/18 12:36:42;;;;;;;53.35;22.27;;;;;;;;;;5084293;28;20039;-68
2022/12/18 12:39:14;;;;;;;55.45;22.10;;;;;;;;;;5068432;28;20135;-69
2022/12/18 12:44:30;;;;;;;52.92;23.83;;;-1.20;99.90;;;;;;5064114;28;20031;-68
2022/12/18 12:47:00;;;;;;;47.90;22.00;;;-1.30;99.90;;;;;;5063912;28;20029;-69
2022/12/18 12:49:30;;;;;;;52.65;23.08;;;-1.30;99.90;;;;;;5066739;28;20388;-68
2022/12/18 12:52:12;;;;;;;49.20;23.20;;;-1.30;99.90;;;;;;5076397;28;20520;-68
2022/12/18 12:54:38;;;;;;;49.05;23.60;;;-1.30;99.90;;;;;;5069344;28;20496;-68
2022/12/18 12:57:24;;;;;;;54.72;23.83;;;-1.30;99.90;;;;;;5072998;28;20121;-67
2022/12/18 13:00:00;;;;;;;51.50;23.83;;;-1.30;99.90;;;;;;5074857;28;20493;-68
2022/12/18 13:02:44;;;;;;;50.30;22.35;;;-1.20;99.90;;;;;;5071115;28;20024;-68
2022/12/18 13:05:22;;;;;;;55.33;23.52;;;-1.20;99.90;;;;;;5079734;28;20032;-68
2022/12/18 13:07:56;;;;;;;46.95;22.42;;;-1.20;99.90;;;;;;5064761;28;20020;-68
2022/12/18 13:10:26;;;;;;;51.10;22.38;;;-1.30;99.90;;;;;;5073300;28;20025;-69
2022/12/18 13:13:06;;;;;;;54.38;24.30;;;-1.30;99.90;;;;;;5068012;28;20021;-68
2022/12/18 13:15:44;;;;;;;;;;;-1.30;99.90;;;;;;5070428;28;20141;-67
2022/12/18 13:18:09;;;;;;;56.13;23.38;;;-1.30;99.90;;;;;;5067845;28;20396;-69
2022/12/18 13:20:39;;;;;;;49.67;22.83;;;-1.30;99.90;;;;;;5070366;28;20021;-68
2022/12/18 13:23:23;;;;;;;;;;;-1.30;99.90;;;;;;5076109;28;20056;-68